Time;durP1;ratioP1;P1;durP2;ratioP2;P2;SDS_P1;SDS_P2;PMS_P1;PMS_P2;Temp;Humidity;BMP_temperature;BMP_pressure;BME280_temperature;BME280_humidity;BME280_pressure;Samples;Min_cycle;Max_cycle;Signal;HPM_P1;HPM_P2
2020/12/13 00:01:46;;;;;;;89.22;37.48;;;;;;;-4.01;100.00;99260.56;1809087;78;21572;-71
2020/12/13 00:04:15;;;;;;;73.87;34.88;;;;;;;-3.99;100.00;99258.57;1829535;78;20978;-71
2020/12/13 00:06:45;;;;;;;81.20;31.55;;;;;;;-3.99;100.00;99254.17;1828672;77;21066;-73
2020/12/13 00:09:14;;;;;;;63.92;28.45;;;;;;;-3.99;100.00;99246.77;1827650;78;20857;-73
2020/12/13 00:11:42;;;;;;;90.62;35.78;;;;;;;-4.01;100.00;99248.27;1828093;77;21170;-71
2020/12/13 00:14:10;;;;;;;84.58;31.00;;;;;;;-4.00;100.00;99253.02;1828426;78;21102;-71
2020/12/13 00:16:38;;;;;;;61.30;28.42;;;;;;;-3.99;100.00;99250.70;1828072;78;20912;-71
2020/12/13 00:19:06;;;;;;;86.15;36.08;;;;;;;-4.01;100.00;99240.41;1828174;78;21525;-71
2020/12/13 00:21:34;;;;;;;69.53;32.20;;;;;;;-4.00;100.00;99249.08;1828200;78;21168;-72
2020/12/13 00:24:02;;;;;;;77.35;33.05;;;;;;;-4.01;100.00;99247.46;1828101;78;21116;-72
2020/12/13 00:26:30;;;;;;;66.05;28.70;;;;;;;-3.99;100.00;99248.92;1828349;78;20871;-72
2020/12/13 00:28:59;;;;;;;81.47;32.17;;;;;;;-3.98;100.00;99251.86;1828755;78;20997;-72
2020/12/13 00:31:29;;;;;;;71.57;31.73;;;;;;;-3.98;100.00;99254.48;1828498;78;20970;-73
2020/12/13 00:33:57;;;;;;;80.95;33.08;;;;;;;-3.97;100.00;99253.98;1828496;78;21108;-73
2020/12/13 00:36:26;;;;;;;73.37;31.77;;;;;;;-3.96;100.00;99255.14;1828914;78;22014;-71
2020/12/13 00:38:54;;;;;;;78.52;36.25;;;;;;;-3.96;100.00;99251.70;1828713;78;21152;-72
2020/12/13 00:41:24;;;;;;;79.95;32.53;;;;;;;-3.95;100.00;99257.27;1828858;78;20990;-72
2020/12/13 00:43:54;;;;;;;83.50;34.92;;;;;;;-3.95;100.00;99248.09;1828557;78;21583;-73
2020/12/13 00:46:22;;;;;;;109.75;39.53;;;;;;;-3.95;100.00;99251.52;1828849;78;20895;-71
2020/12/13 00:48:51;;;;;;;103.67;40.33;;;;;;;-3.95;100.00;99255.95;1828693;78;22468;-73
2020/12/13 00:51:25;;;;;;;97.55;40.17;;;;;;;-3.94;100.00;99250.55;1828547;78;21587;-70
2020/12/13 00:54:09;;;;;;;98.47;40.17;;;;;;;-3.88;100.00;99242.50;1875579;75;27973;-71
2020/12/13 00:56:39;;;;;;;97.30;35.60;;;;;;;-3.92;100.00;99243.80;1814877;78;20987;-72
2020/12/13 00:59:08;;;;;;;87.12;35.50;;;;;;;-3.93;100.00;99243.00;1820015;78;22097;-70
2020/12/13 01:01:36;;;;;;;82.70;31.55;;;;;;;-3.92;100.00;99242.50;1819635;78;21031;-71
2020/12/13 01:04:04;;;;;;;75.47;32.48;;;;;;;-3.91;100.00;99245.47;1819951;78;21474;-71
2020/12/13 01:06:33;;;;;;;108.90;41.98;;;;;;;-3.93;100.00;99246.93;1819598;78;20908;-74
2020/12/13 01:09:01;;;;;;;94.47;40.17;;;;;;;-3.92;100.00;99244.65;1819822;78;20896;-71
2020/12/13 01:11:32;;;;;;;85.80;35.63;;;;;;;-3.91;100.00;99246.77;1820102;78;21176;-73
2020/12/13 01:14:01;;;;;;;115.85;39.80;;;;;;;-3.91;100.00;99239.72;1819849;78;21011;-72
2020/12/13 01:16:30;;;;;;;94.65;36.85;;;;;;;-3.89;100.00;99242.19;1819963;78;21054;-72
2020/12/13 01:19:00;;;;;;;125.33;47.25;;;;;;;-3.89;100.00;99238.25;1815005;78;21572;-70
2020/12/13 01:21:30;;;;;;;113.40;45.85;;;;;;;-3.90;100.00;99233.47;1819673;78;20972;-70
2020/12/13 01:24:00;;;;;;;91.65;38.20;;;;;;;-3.90;100.00;99230.85;1819647;78;22138;-72
2020/12/13 01:26:29;;;;;;;96.55;39.38;;;;;;;-3.90;100.00;99232.66;1819592;78;20975;-72
2020/12/13 01:28:56;;;;;;;95.12;39.38;;;;;;;-3.90;100.00;99226.92;1819662;78;21549;-70
2020/12/13 01:31:24;;;;;;;99.87;39.30;;;;;;;-3.89;100.00;99228.58;1819847;78;20912;-70
2020/12/13 01:33:53;;;;;;;90.97;37.93;;;;;;;-3.89;100.00;99231.20;1819868;78;21311;-72
2020/12/13 01:36:23;;;;;;;91.20;34.15;;;;;;;-3.88;100.00;99232.01;1819836;78;22162;-70
2020/12/13 01:38:52;;;;;;;89.75;36.10;;;;;;;-3.86;100.00;99232.66;1819638;78;20979;-70
2020/12/13 01:41:24;;;;;;;82.10;35.63;;;;;;;-3.86;100.00;99233.16;1819714;78;21435;-71
2020/12/13 01:44:01;;;;;;;79.62;35.17;;;;;;;-3.83;100.00;99242.00;1819488;78;21038;-70
2020/12/13 01:46:31;;;;;;;89.58;38.05;;;;;;;-3.84;100.00;99235.94;1819856;78;21564;-72
2020/12/13 01:49:03;;;;;;;113.17;39.58;;;;;;;-3.82;100.00;99238.37;1819503;78;21332;-71
2020/12/13 01:54:12;;;;;;;101.53;38.15;;;;;;;-3.80;100.00;99235.09;1822382;78;20908;-73
2020/12/13 01:56:45;;;;;;;101.67;41.98;;;;;;;-3.80;100.00;99228.04;1823049;78;20896;-73
2020/12/13 01:59:17;;;;;;;134.03;45.80;;;;;;;-3.80;100.00;99229.34;1823451;78;20979;-72
2020/12/13 02:01:48;;;;;;;90.55;36.70;;;;;;;-3.79;100.00;99228.38;1823323;78;21139;-70
2020/12/13 02:04:21;;;;;;;90.15;37.58;;;;;;;-3.78;100.00;99226.56;1822997;78;21149;-71
2020/12/13 02:06:54;;;;;;;106.03;38.88;;;;;;;-3.78;100.00;99217.39;1822741;78;20903;-70
2020/12/13 02:09:28;;;;;;;118.17;42.38;;;;;;;-3.77;100.00;99225.56;1795748;78;20936;-73
2020/12/13 02:11:58;;;;;;;99.72;38.42;;;;;;;-3.77;100.00;99223.79;1822709;78;21035;-72
2020/12/13 02:14:27;;;;;;;100.40;38.75;;;;;;;-3.74;100.00;99220.01;1822830;78;21356;-70
2020/12/13 02:16:56;;;;;;;94.00;38.53;;;;;;;-3.72;100.00;99215.42;1822565;78;21608;-71
2020/12/13 02:19:24;;;;;;;105.37;36.73;;;;;;;-3.73;100.00;99220.32;1795399;78;21502;-72
2020/12/13 02:21:53;;;;;;;115.72;42.13;;;;;;;-3.71;100.00;99222.28;1822439;78;20908;-72
2020/12/13 02:24:22;;;;;;;143.72;47.08;;;;;;;-3.72;100.00;99214.92;1822859;78;21018;-71
2020/12/13 02:26:52;;;;;;;143.32;44.50;;;;;;;-3.70;100.00;99227.38;1822411;78;22069;-71
2020/12/13 02:29:20;;;;;;;101.53;38.13;;;;;;;-3.69;100.00;99221.63;1822738;78;21094;-71
2020/12/13 02:31:51;;;;;;;91.02;34.43;;;;;;;-3.70;100.00;99215.57;1823459;78;21547;-70
2020/12/13 02:34:43;;;;;;;107.63;37.03;;;;;;;-3.68;100.00;99210.13;1822166;78;20952;-73
2020/12/13 02:37:19;;;;;;;95.38;38.95;;;;;;;-3.63;100.00;99216.19;1851778;77;28570;-71
2020/12/13 02:39:47;;;;;;;95.07;35.88;;;;;;;-3.67;100.00;99218.34;1788732;78;21057;-71
2020/12/13 02:42:15;;;;;;;110.63;39.80;;;;;;;-3.65;100.00;99218.97;1750090;81;21652;-71
2020/12/13 02:44:44;;;;;;;;;;;;;;;-3.66;100.00;99219.47;1822372;78;21038;-72
2020/12/13 02:47:13;;;;;;;103.72;40.10;;;;;;;-3.66;100.00;99222.09;1819534;78;20160;-72
2020/12/13 02:49:42;;;;;;;92.82;38.17;;;;;;;-3.62;100.00;99223.09;1749427;82;21098;-72
2020/12/13 02:52:10;;;;;;;93.58;38.58;;;;;;;-3.61;100.00;99222.09;1819815;78;20987;-70
2020/12/13 02:54:41;;;;;;;84.90;36.65;;;;;;;-3.61;100.00;99216.84;1749873;81;21841;-71
2020/12/13 02:57:09;;;;;;;85.05;35.10;;;;;;;-3.60;100.00;99223.23;1819527;78;21577;-70
2020/12/13 02:59:40;;;;;;;96.95;39.23;;;;;;;-3.60;100.00;99222.39;1749819;81;28850;-72
2020/12/13 03:02:09;;;;;;;87.20;34.92;;;;;;;-3.59;100.00;99221.42;1788081;78;21042;-70
2020/12/13 03:04:38;;;;;;;97.50;40.85;;;;;;;-3.60;100.00;99223.70;1787186;80;20991;-69
2020/12/13 03:07:09;;;;;;;98.70;38.95;;;;;;;-3.59;100.00;99215.67;1787168;80;21179;-72
2020/12/13 03:09:37;;;;;;;94.42;37.30;;;;;;;-3.59;100.00;99224.05;1787257;80;20919;-72
2020/12/13 03:12:05;;;;;;;102.65;39.10;;;;;;;-3.60;100.00;99216.68;1787292;80;21561;-72
2020/12/13 03:14:33;;;;;;;79.77;32.55;;;;;;;-3.60;100.00;99216.68;1787437;80;20962;-71
2020/12/13 03:17:07;;;;;;;113.60;42.13;;;;;;;-3.59;100.00;99217.48;1787563;80;21054;-72
2020/12/13 03:19:35;;;;;;;89.58;38.45;;;;;;;-3.58;100.00;99213.86;1787521;80;21148;-73
2020/12/13 03:22:03;;;;;;;97.55;39.25;;;;;;;-3.57;100.00;99219.45;1787787;80;21588;-72
2020/12/13 03:24:31;;;;;;;82.65;36.35;;;;;;;-3.57;100.00;99211.58;1787570;80;21625;-72
2020/12/13 03:27:00;;;;;;;104.20;41.48;;;;;;;-3.57;100.00;99214.20;1787688;80;20908;-72
2020/12/13 03:29:27;;;;;;;91.45;38.70;;;;;;;-3.54;100.00;99212.55;1787784;80;21058;-72
2020/12/13 03:31:56;;;;;;;104.97;38.17;;;;;;;-3.54;100.00;99214.67;1757304;80;22192;-71
2020/12/13 03:34:24;;;;;;;102.00;39.60;;;;;;;-3.53;100.00;99212.86;1757538;80;20991;-70
2020/12/13 03:36:53;;;;;;;98.95;41.73;;;;;;;-3.52;100.00;99217.13;1787053;80;21563;-71
2020/12/13 03:39:21;;;;;;;97.57;42.43;;;;;;;-3.52;100.00;99204.83;1786766;80;21161;-72
2020/12/13 03:41:49;;;;;;;113.47;48.13;;;;;;;-3.51;100.00;99212.20;1787169;80;21042;-73
2020/12/13 03:44:17;;;;;;;109.20;45.85;;;;;;;-3.49;100.00;99206.28;1787283;80;21249;-71
2020/12/13 03:46:45;;;;;;;97.40;41.77;;;;;;;-3.47;100.00;99211.69;1787344;80;20967;-72
2020/12/13 03:49:13;;;;;;;104.20;44.42;;;;;;;-3.48;100.00;99215.31;1787179;80;21564;-69
2020/12/13 03:51:42;;;;;;;109.50;48.50;;;;;;;-3.47;100.00;99221.38;1787163;80;21591;-70
2020/12/13 03:54:12;;;;;;;100.05;45.23;;;;;;;-3.46;100.00;99222.49;1787100;80;21054;-71
2020/12/13 03:56:40;;;;;;;100.80;38.00;;;;;;;-3.44;100.00;99224.95;1787054;80;22604;-72
2020/12/13 03:59:08;;;;;;;97.12;41.65;;;;;;;-3.45;100.00;99217.59;1786676;80;21509;-71
2020/12/13 04:01:38;;;;;;;104.75;42.25;;;;;;;-3.43;100.00;99216.08;1786949;80;20884;-73
2020/12/13 04:04:07;;;;;;;139.25;53.85;;;;;;;-3.42;100.00;99220.36;1787012;80;20876;-71
2020/12/13 04:06:35;;;;;;;109.17;47.58;;;;;;;-3.40;100.00;99228.07;1786967;80;20959;-70
2020/12/13 04:09:03;;;;;;;142.87;55.83;;;;;;;-3.38;100.00;99236.56;1787237;80;22592;-72
2020/12/13 04:11:31;;;;;;;254.78;97.85;;;;;;;-3.34;100.00;99237.87;1787121;80;20939;-71
2020/12/13 04:13:59;;;;;;;102.85;44.00;;;;;;;-3.31;100.00;99244.89;1787176;80;20924;-72
2020/12/13 04:16:30;;;;;;;78.80;34.40;;;;;;;-3.32;100.00;99239.33;1786825;80;21176;-71
2020/12/13 04:18:59;;;;;;;115.15;46.75;;;;;;;-3.31;100.00;99234.39;1786783;80;20872;-70
2020/12/13 04:21:27;;;;;;;139.68;56.53;;;;;;;-3.30;100.00;99226.86;1787172;80;22518;-70
2020/12/13 04:23:55;;;;;;;96.53;41.92;;;;;;;-3.26;100.00;99226.00;1786861;80;20955;-71
2020/12/13 04:26:23;;;;;;;;;;;;;;;-3.27;100.00;99225.19;1789553;80;21133;-73
2020/12/13 04:28:51;;;;;;;98.27;41.87;;;;;;;-3.25;100.00;99229.78;1756988;80;20151;-70
2020/12/13 04:31:21;;;;;;;97.40;36.68;;;;;;;-3.23;100.00;99221.74;1786851;80;20916;-73
2020/12/13 04:33:50;;;;;;;98.67;38.50;;;;;;;-3.24;100.00;99223.53;1782288;80;21246;-69
2020/12/13 04:36:17;;;;;;;126.05;46.05;;;;;;;-3.22;100.00;99222.55;1787984;79;21466;-72
2020/12/13 04:38:47;;;;;;;227.87;88.87;;;;;;;-3.21;100.00;99218.42;1789686;80;21466;-72
2020/12/13 04:41:15;;;;;;;95.28;40.60;;;;;;;-3.19;100.00;99215.64;1790302;80;21012;-72
2020/12/13 04:43:43;;;;;;;115.60;46.30;;;;;;;-3.16;100.00;99216.59;1790434;80;20995;-72
2020/12/13 04:46:11;;;;;;;220.55;81.35;;;;;;;-3.13;100.00;99217.59;1790530;80;21621;-71
2020/12/13 04:48:41;;;;;;;158.12;59.05;;;;;;;-3.12;100.00;99210.02;1789869;80;20900;-71
2020/12/13 04:51:09;;;;;;;212.45;71.90;;;;;;;-3.11;100.00;99211.64;1790274;80;20935;-72
2020/12/13 04:53:39;;;;;;;106.92;41.80;;;;;;;-3.07;100.00;99214.25;1789956;80;20928;-73
2020/12/13 04:56:09;;;;;;;145.90;60.43;;;;;;;-3.07;100.00;99210.31;1790290;80;21014;-74
2020/12/13 04:58:39;;;;;;;107.55;48.17;;;;;;;-3.04;100.00;99211.27;1790353;80;21187;-72
2020/12/13 05:01:08;;;;;;;190.03;72.78;;;;;;;-3.02;100.00;99210.10;1764547;80;20896;-72
2020/12/13 05:03:37;;;;;;;249.98;101.33;;;;;;;-3.01;100.00;99203.06;1764257;80;20907;-71
2020/12/13 05:06:06;;;;;;;125.10;58.00;;;;;;;-3.00;100.00;99207.81;1790360;80;21129;-73
2020/12/13 05:08:34;;;;;;;114.85;47.10;;;;;;;-2.98;100.00;99207.96;1790459;80;20986;-73
2020/12/13 05:11:04;;;;;;;100.55;43.45;;;;;;;-2.96;100.00;99207.77;1790523;80;22656;-70
2020/12/13 05:13:38;;;;;;;97.15;42.03;;;;;;;-2.98;100.00;99211.09;1790241;80;21034;-72
2020/12/13 05:16:08;;;;;;;81.55;34.78;;;;;;;-2.97;100.00;99212.71;1790163;80;21144;-72
2020/12/13 05:18:40;;;;;;;70.35;32.17;;;;;;;-2.96;100.00;99215.64;1790286;80;21010;-72
2020/12/13 05:21:09;;;;;;;76.40;33.55;;;;;;;-2.97;100.00;99214.02;1789915;80;20983;-70
2020/12/13 05:23:38;;;;;;;79.25;33.05;;;;;;;-2.95;100.00;99218.11;1790394;80;22554;-73
2020/12/13 05:26:08;;;;;;;125.78;49.63;;;;;;;-2.94;100.00;99215.82;1790984;80;21589;-72
2020/12/13 05:28:38;;;;;;;83.27;36.00;;;;;;;-2.93;100.00;99218.75;1790061;80;21572;-73
2020/12/13 05:31:06;;;;;;;74.17;32.23;;;;;;;-2.93;100.00;99221.38;1764244;80;20970;-71
2020/12/13 05:33:43;;;;;;;88.47;40.17;;;;;;;-2.93;100.00;99224.01;1764290;80;20931;-72
2020/12/13 05:36:11;;;;;;;58.23;33.58;;;;;;;-2.91;100.00;99226.47;1788600;78;22177;-71
2020/12/13 05:38:41;;;;;;;79.50;35.20;;;;;;;-2.90;100.00;99224.16;1786931;80;21501;-71
2020/12/13 05:41:11;;;;;;;72.00;32.55;;;;;;;-2.89;100.00;99228.41;1787009;80;21046;-73
2020/12/13 05:49:53;;;;;;;68.75;32.25;;;;;;;-2.87;100.00;99224.61;1786977;80;21806;-73
2020/12/13 05:52:02;;;;;;;91.72;39.78;;;;;;;-2.86;100.00;99222.82;1782530;80;21026;-72
2020/12/13 05:54:31;;;;;;;82.80;39.75;;;;;;;-2.85;100.00;99221.81;1707327;80;20923;-70
2020/12/13 05:57:01;;;;;;;96.12;45.23;;;;;;;-2.84;100.00;99228.22;1782071;80;20915;-71
2020/12/13 05:59:31;;;;;;;106.00;46.40;;;;;;;-2.83;100.00;99219.84;1786536;78;21747;-73
2020/12/13 06:02:13;;;;;;;91.63;41.23;;;;;;;-2.82;100.00;99225.40;1791189;78;21370;-71
2020/12/13 06:07:52;;;;;;;80.65;37.67;;;;;;;-2.74;100.00;99212.22;1873253;75;28235;-70
2020/12/13 06:10:26;;;;;;;76.55;38.35;;;;;;;-2.77;100.00;99219.62;1817984;78;21773;-71
2020/12/13 06:13:06;;;;;;;176.50;58.28;;;;;;;-2.76;100.00;99210.77;1763016;77;21202;-71
2020/12/13 06:15:35;;;;;;;160.75;59.93;;;;;;;-2.75;100.00;99215.02;1847204;77;21047;-72
2020/12/13 06:18:04;;;;;;;89.45;40.38;;;;;;;-2.73;100.00;99216.47;1764187;81;21014;-71
2020/12/13 06:20:32;;;;;;;174.80;62.75;;;;;;;-2.71;100.00;99222.38;1787629;80;21275;-72
2020/12/13 06:23:01;;;;;;;171.22;61.08;;;;;;;-2.70;100.00;99215.30;1754934;80;21055;-70
2020/12/13 06:25:30;;;;;;;114.17;47.13;;;;;;;-2.69;100.00;99213.83;1780007;77;21571;-70
2020/12/13 06:28:13;;;;;;;138.10;57.33;;;;;;;-2.67;100.00;99210.53;1750986;81;21024;-71
2020/12/13 06:30:41;;;;;;;99.83;44.85;;;;;;;-2.63;100.00;99218.86;1809131;77;21608;-70
2020/12/13 06:33:09;;;;;;;179.68;64.17;;;;;;;-2.61;100.00;99212.94;1745252;81;21152;-70
2020/12/13 06:35:37;;;;;;;87.37;37.58;;;;;;;-2.60;100.00;99219.81;1788674;80;21134;-70
2020/12/13 06:38:18;;;;;;;101.97;43.13;;;;;;;-2.59;100.00;99220.15;1745678;81;22220;-74
2020/12/13 06:40:48;;;;;;;95.30;43.83;;;;;;;-2.57;100.00;99221.27;1788485;80;20979;-70
2020/12/13 06:43:23;;;;;;;85.90;38.38;;;;;;;-2.55;100.00;99227.17;1760714;81;20977;-72
2020/12/13 06:46:11;;;;;;;90.72;44.77;;;;;;;-2.54;100.00;99220.44;1819274;78;21082;-73
2020/12/13 06:48:43;;;;;;;70.03;35.25;;;;;;;-2.52;100.00;99221.55;1818848;78;21034;-71
2020/12/13 06:51:11;;;;;;;105.97;43.85;;;;;;;-2.51;100.00;99218.76;1817523;78;21137;-72
2020/12/13 06:53:39;;;;;;;94.22;39.80;;;;;;;-2.49;100.00;99215.46;1788074;78;20991;-72
2020/12/13 06:56:09;;;;;;;150.05;60.83;;;;;;;-2.48;100.00;99210.51;1787906;78;21537;-71
2020/12/13 06:58:58;;;;;;;162.25;62.05;;;;;;;-2.46;100.00;99217.73;1818250;78;21192;-71
2020/12/13 07:01:33;;;;;;;100.87;46.53;;;;;;;-2.45;100.00;99214.13;1771007;79;21728;-72
2020/12/13 07:04:37;;;;;;;176.42;66.00;;;;;;;-2.39;100.00;99213.89;1814080;78;22257;-74
2020/12/13 07:07:26;;;;;;;160.70;64.20;;;;;;;-2.37;100.00;99208.78;1795280;79;21158;-73
2020/12/13 07:10:24;;;;;;;109.48;47.60;;;;;;;-2.35;100.00;99216.50;1786855;79;20999;-73
2020/12/13 07:25:46;;;;;;;93.97;40.65;;;;;;;-2.22;100.00;99224.58;1802012;79;21566;-74
2020/12/13 07:56:40;;;;;;;74.82;34.92;;;;;;;-2.07;100.00;99239.56;1638230;87;21229;-75
2020/12/13 08:29:05;;;;;;;;;;;;;;;;;;;;;
2020/12/13 08:31:42;;;;;;;130.22;53.85;;;;;;;-1.75;100.00;99251.05;1875604;75;27985;-72
2020/12/13 08:34:13;;;;;;;107.90;53.28;;;;;;;-1.75;100.00;99242.34;1814788;78;21660;-74
2020/12/13 09:21:10;;;;;;;100.35;41.77;;;;;;;-1.36;100.00;99206.49;1846686;77;28783;-73
2020/12/13 09:24:27;;;;;;;101.90;41.83;;;;;;;-1.39;100.00;99210.02;1817944;78;21862;-75
2020/12/13 09:27:26;;;;;;;110.85;45.73;;;;;;;-1.38;100.00;99201.09;1762309;81;21768;-73
2020/12/13 09:29:56;;;;;;;92.65;43.33;;;;;;;-1.37;100.00;99205.34;1725891;82;21940;-73
2020/12/13 09:32:25;;;;;;;102.00;45.45;;;;;;;-1.36;100.00;99199.10;1695888;83;21693;-73
2020/12/13 09:35:03;;;;;;;143.30;51.65;;;;;;;-1.36;100.00;99197.28;1693744;83;21032;-73
2020/12/13 09:37:30;;;;;;;156.40;65.40;;;;;;;-1.35;100.00;99192.82;1754346;81;21639;-73
2020/12/13 09:40:03;;;;;;;120.92;52.35;;;;;;;-1.35;100.00;99192.34;1753516;81;21566;-73
2020/12/13 09:43:29;;;;;;;106.97;45.55;;;;;;;-1.34;100.00;99187.89;1753697;81;26795;-73
2020/12/13 09:46:01;;;;;;;101.70;40.83;;;;;;;-1.33;100.00;99187.69;1756449;81;21014;-76
2020/12/13 09:48:53;;;;;;;93.52;41.70;;;;;;;-1.31;100.00;99192.77;1750941;81;21683;-73
2020/12/13 09:51:21;;;;;;;98.33;44.20;;;;;;;-1.31;100.00;99186.19;1753808;81;21193;-73
2020/12/13 09:54:03;;;;;;;125.25;48.17;;;;;;;-1.25;100.00;99185.47;1870898;75;28863;-74
2020/12/13 10:00:26;;;;;;;128.02;51.77;;;;;;;-1.25;100.00;99178.04;1830130;77;28462;-72
2020/12/13 10:02:55;;;;;;;110.08;46.15;;;;;;;-1.28;100.00;99186.32;1774294;80;21135;-72
2020/12/13 10:09:55;;;;;;;;;;;;;;;;;;;;;
2020/12/13 10:12:27;;;;;;;;;;;;;;;-1.26;100.00;99191.72;1705721;83;21231;-72
2020/12/13 10:18:30;;;;;;;118.20;47.13;;;;;;;-1.22;100.00;99194.30;1697924;82;20280;-73
2020/12/13 10:21:10;;;;;;;117.37;47.00;;;;;;;-1.17;100.00;99184.02;1842616;77;28521;-72
2020/12/13 10:23:38;;;;;;;121.25;48.92;;;;;;;-1.21;100.00;99186.70;1818265;79;20912;-73
2020/12/13 10:26:10;;;;;;;115.40;48.48;;;;;;;-1.18;100.00;99190.27;1818560;79;21818;-73
2020/12/13 10:28:42;;;;;;;140.92;48.65;;;;;;;-1.16;100.00;99194.05;1817136;79;21026;-73
2020/12/13 10:31:14;;;;;;;110.28;47.45;;;;;;;-1.17;100.00;99196.38;1749872;82;21099;-73
2020/12/13 10:33:55;;;;;;;116.65;45.78;;;;;;;-1.16;100.00;99190.91;1780247;80;21058;-73
2020/12/13 10:39:09;;;;;;;128.18;46.48;;;;;;;-1.11;100.00;99185.89;1788207;78;25695;-72
2020/12/13 10:41:41;;;;;;;168.72;61.02;;;;;;;-1.15;100.00;99187.29;1791663;80;21493;-72
2020/12/13 10:44:20;;;;;;;128.35;48.90;;;;;;;-1.14;100.00;99188.91;1728131;82;21819;-73
2020/12/13 10:46:56;;;;;;;152.97;53.05;;;;;;;-1.11;100.00;99192.98;1739550;82;20964;-71
2020/12/13 10:49:25;;;;;;;;;;;;;;;-1.12;100.00;99188.73;1742330;82;21082;-72
2020/12/13 10:51:54;;;;;;;146.50;48.50;;;;;;;-1.13;100.00;99180.50;1770635;81;20487;-72
2020/12/13 10:54:29;;;;;;;146.30;54.88;;;;;;;-1.14;100.00;99189.42;1731153;82;21172;-73
2020/12/13 10:57:01;;;;;;;129.05;47.43;;;;;;;-1.13;100.00;99191.03;1760835;81;21201;-72
2020/12/13 10:59:29;;;;;;;142.40;46.48;;;;;;;-1.14;100.00;99188.09;1739941;82;21031;-73
2020/12/13 11:02:01;;;;;;;144.53;50.33;;;;;;;-1.13;100.00;99185.77;1740059;82;21020;-73
2020/12/13 11:04:34;;;;;;;156.15;53.13;;;;;;;-1.13;100.00;99185.77;1739943;82;20979;-73
2020/12/13 11:07:03;;;;;;;153.62;53.58;;;;;;;-1.13;100.00;99187.92;1739998;82;20897;-72
2020/12/13 11:09:31;;;;;;;150.25;58.08;;;;;;;-1.12;100.00;99184.78;1740132;82;21212;-73
2020/12/13 11:12:01;;;;;;;142.53;53.17;;;;;;;-1.13;100.00;99186.61;1739921;82;20940;-74
2020/12/13 11:14:32;;;;;;;205.55;72.03;;;;;;;-1.11;100.00;99181.94;1740141;82;26604;-73
2020/12/13 11:17:05;;;;;;;144.13;55.88;;;;;;;-1.11;100.00;99178.50;1738360;82;21158;-72
2020/12/13 11:19:33;;;;;;;170.07;59.80;;;;;;;-1.11;100.00;99175.86;1739969;82;20924;-73
2020/12/13 11:22:02;;;;;;;132.40;48.80;;;;;;;-1.10;100.00;99184.91;1739985;82;21374;-72
2020/12/13 11:24:33;;;;;;;136.65;50.63;;;;;;;-1.10;100.00;99177.52;1711352;82;21011;-74
2020/12/13 11:27:07;;;;;;;124.78;43.25;;;;;;;-1.11;100.00;99181.94;1739632;81;21046;-73
2020/12/13 11:29:36;;;;;;;176.10;60.10;;;;;;;-1.11;100.00;99176.67;1763784;81;21044;-75
2020/12/13 11:32:06;;;;;;;144.55;51.25;;;;;;;-1.11;100.00;99181.13;1741297;82;21170;-74
2020/12/13 11:34:40;;;;;;;194.40;67.75;;;;;;;-1.11;100.00;99185.89;1741420;82;21234;-75
2020/12/13 11:37:11;;;;;;;187.37;67.05;;;;;;;-1.12;100.00;99185.59;1739354;81;21004;-73
2020/12/13 11:39:48;;;;;;;212.15;75.25;;;;;;;-1.11;100.00;99182.45;1719533;83;21084;-73
2020/12/13 11:42:24;;;;;;;140.03;53.30;;;;;;;-1.10;100.00;99188.86;1693423;83;21040;-73
2020/12/13 11:44:58;;;;;;;205.57;79.42;;;;;;;-1.10;100.00;99180.15;1719719;83;20930;-75
2020/12/13 11:47:34;;;;;;;293.60;111.25;;;;;;;-1.10;100.00;99182.78;1719668;83;21482;-74
2020/12/13 11:50:09;;;;;;;127.90;50.65;;;;;;;-1.10;100.00;99174.88;1719208;83;21664;-74
2020/12/13 11:52:49;;;;;;;124.90;50.23;;;;;;;-1.09;100.00;99183.08;1719070;83;20961;-73
2020/12/13 11:55:25;;;;;;;255.15;107.45;;;;;;;-1.04;100.00;99187.80;1820053;77;23241;-72
2020/12/13 11:58:05;;;;;;;207.07;88.40;;;;;;;-1.10;100.00;99184.91;1756524;81;21472;-75
2020/12/13 12:01:30;;;;;;;;;;;;;;;;;;;;;
2020/12/13 12:04:40;;;;;;;103.85;46.55;;;;;;;-1.06;100.00;99181.89;1846335;77;29095;-74
2020/12/13 12:07:22;;;;;;;174.93;81.37;;;;;;;-1.11;100.00;99177.99;1786773;79;21039;-75
2020/12/13 12:12:55;;;;;;;139.97;61.92;;;;;;;-1.07;100.00;99183.72;1851950;77;22165;-73
2020/12/13 12:15:32;;;;;;;136.72;58.52;;;;;;;-1.11;100.00;99188.53;1754311;81;21199;-74
2020/12/13 12:18:21;;;;;;;151.70;60.35;;;;;;;-1.07;100.00;99185.03;1875113;76;22780;-73
2020/12/13 12:21:06;;;;;;;103.72;46.63;;;;;;;-1.13;100.00;99181.34;1814776;79;20896;-73
2020/12/13 12:34:43;;;;;;;133.05;54.75;;;;;;;-1.06;100.00;99187.16;1790381;78;28216;-73
2020/12/13 12:37:24;;;;;;;148.40;61.25;;;;;;;-1.11;100.00;99189.03;1773181;81;20994;-74
2020/12/13 12:40:24;;;;;;;187.07;70.57;;;;;;;-1.11;100.00;99185.89;1759986;81;21402;-73
2020/12/13 12:43:02;;;;;;;220.45;84.80;;;;;;;-1.12;100.00;99184.27;1764017;81;20974;-74
2020/12/13 12:45:52;;;;;;;;;;;;;;;;;;;;;
2020/12/13 13:01:50;;;;;;;181.35;71.75;;;;;;;-1.06;100.00;99197.19;1769728;80;27993;-73
2020/12/13 13:05:08;;;;;;;201.95;84.47;;;;;;;-1.06;100.00;99199.02;1852029;77;28241;-75
2020/12/13 13:07:49;;;;;;;104.43;47.17;;;;;;;-1.10;100.00;99203.86;1819709;78;21007;-75
2020/12/13 13:25:22;;;;;;;206.65;86.75;;;;;;;-1.11;100.00;99210.91;1733589;82;21039;-74
2020/12/13 13:28:39;;;;;;;;;;;;;;;;;;;;;
2020/12/13 13:50:47;;;;;;;73.10;34.03;;;;;;;-1.12;100.00;99227.73;1666681;85;21609;-77
2020/12/13 13:53:23;;;;;;;89.80;41.13;;;;;;;-1.10;100.00;99233.64;1669973;84;21191;-74
2020/12/13 13:58:29;;;;;;;94.85;39.00;;;;;;;-1.09;100.00;99230.50;1693792;84;20940;-75
2020/12/13 14:01:42;;;;;;;90.95;38.13;;;;;;;-1.07;100.00;99236.91;1684799;83;21261;-75
2020/12/13 14:04:13;;;;;;;101.10;47.08;;;;;;;-1.09;100.00;99233.94;1658234;83;21098;-74
2020/12/13 14:50:53;;;;;;;53.33;26.75;;;;;;;-1.15;100.00;99256.24;1771422;77;21462;-72
2020/12/13 14:53:36;;;;;;;;;;;;;;;;;;;;;
2020/12/13 15:07:11;;;;;;;;;;;;;;;;;;;;;
2020/12/13 17:11:01;;;;;;;97.72;41.55;;;;;;;-1.23;100.00;99264.27;1784536;77;22317;-74
2020/12/13 17:13:46;;;;;;;;;;;;;;;;;;;;;
2020/12/13 17:30:32;;;;;;;;;;;;;;;;;;;;;
2020/12/13 17:33:58;;;;;;;;;;;;;;;;;;;;;
2020/12/13 17:38:10;;;;;;;;;;;;;;;;;;;;;
2020/12/13 18:24:16;;;;;;;;;;;;;;;;;;;;;
2020/12/13 18:26:51;;;;;;;142.77;59.18;;;;;;;-1.34;100.00;99272.95;1733735;80;21425;-75
2020/12/13 19:39:07;;;;;;;;;;;;;;;;;;;;;
2020/12/13 19:42:02;;;;;;;99.25;44.30;;;;;;;-1.32;100.00;99289.90;1840820;77;28378;-74
2020/12/13 19:44:34;;;;;;;80.42;41.28;;;;;;;-1.37;100.00;99289.12;1816399;78;21090;-74
